Aérodrome :
LOGIN :

S'inscrire | Disclaimer

   EN    FR    IT 

 










Légende :    VFR   VFR Marginal   IFR   IFR Intensif   IFR Très Intensif
Visi : 
Plafond : 
>= 8 km
>= 3000ft
5 à 8 km
1000 à 3000 ft
1500m à 5 km
500 à 1000 ft
800 à 1500m
200 à 500 ft
< 800m
< 200 ft
Symboles :   Orages  Brouillard  Fortes neiges  Fortes précipitations  Vent > 20 kt
SIGMETs :   Divers  Orages  Givrage  Turbulence  Onde Orograph.  Cendres Volcan.






- Altitude de l'aérodrome : 56 ft
- Code IATA : BZR


LFMU - Beziers / Vias

DERNIER METAR :
  • 190430Z AUTO 27008KT CAVOK 06/01 Q1015 NOSIG

METARs EXPIRÉS :
  • 190400Z AUTO 28010KT CAVOK 06/00 Q1014 NOSIG
  • 190330Z AUTO 27008KT CAVOK 04/00 Q1014 NOSIG
  • 190300Z AUTO 28010KT CAVOK 05/01 Q1015 NOSIG
  • 190230Z AUTO 28012KT CAVOK 05/00 Q1015
  • 190200Z AUTO 28011KT CAVOK 06/00 Q1015

TAF TAF LFMU
Valide du 19 à 03h jusqu'au 20 à 03h UTC


190200Z 1903/2003 29013KT CAVOK
BECMG 1916/1918 29003KT
ATIS : +33 4 67 90 88 88



MET'MAP, la Météo Aéronautique d'un coup d'oeil ! - Copyright ORBIFLY Décembre 2007 - Disclaimer

ORBIFLY MET'MAP TEAM :

Programmation & Développement : Alexandra Zaïnal
Conception & Développement : Baudouin d'Aumeries
Co-Programmation & Développement : Marc-Olivier Méhu
Soutien technique & logistique : Manuel Goepfert

Contact : metmap@orbifly.com




SOURCES & CREDITS :

   NOAA